Time;durP1;ratioP1;P1;durP2;ratioP2;P2;SDS_P1;SDS_P2;PMS_P1;PMS_P2;Temp;Humidity;BMP_temperature;BMP_pressure;BME280_temperature;BME280_humidity;BME280_pressure;Samples;Min_cycle;Max_cycle;Signal;HPM_P1;HPM_P2
2022/12/30 00:02:06;;;;;;;11.73;2.50;;;7.70;99.90;;;;;;5052342;28;20222;-45
2022/12/30 00:04:31;;;;;;;12.23;2.40;;;7.70;99.90;;;;;;5052603;28;20163;-45
2022/12/30 00:06:57;;;;;;;7.57;2.40;;;7.60;99.90;;;;;;5052480;28;20236;-45
2022/12/30 00:09:22;;;;;;;12.10;2.17;;;7.60;99.90;;;;;;5052429;28;20567;-45
2022/12/30 00:11:48;;;;;;;14.50;3.22;;;7.60;99.90;;;;;;5052357;28;20174;-45
2022/12/30 00:34:05;;;;;;;11.10;2.30;;;7.50;99.90;;;;;;5052008;28;20209;-45
2022/12/30 00:36:31;;;;;;;11.57;2.30;;;7.50;99.90;;;;;;5051974;28;20158;-45
2022/12/30 00:38:57;;;;;;;10.40;2.13;;;7.50;99.90;;;;;;5051881;28;20175;-45
2022/12/30 00:44:07;;;;;;;9.68;2.05;;;7.50;99.90;;;;;;5052113;28;20197;-45
2022/12/30 00:46:33;;;;;;;9.27;3.10;;;7.50;99.90;;;;;;5051862;28;20622;-45
2022/12/30 00:57:12;;;;;;;13.07;2.35;;;7.50;99.90;;;;;;5051707;28;20273;-45
2022/12/30 00:59:37;;;;;;;8.65;2.15;;;7.50;99.90;;;;;;5051701;28;20250;-45
2022/12/30 01:02:03;;;;;;;7.18;2.10;;;7.50;99.90;;;;;;5051637;28;20341;-45
2022/12/30 01:04:29;;;;;;;10.23;2.22;;;7.50;99.90;;;;;;5051753;28;20186;-45
2022/12/30 01:06:54;;;;;;;10.68;2.17;;;7.50;99.90;;;;;;5051372;28;20664;-45
2022/12/30 01:09:20;;;;;;;9.05;2.45;;;7.40;99.90;;;;;;5051611;28;20670;-45
2022/12/30 01:12:07;;;;;;;10.68;2.08;;;7.50;99.90;;;;;;5051929;28;20165;-45
2022/12/30 01:14:31;;;;;;;5.00;2.20;;;7.50;99.90;;;;;;5050304;28;20175;-45
2022/12/30 01:16:57;;;;;;;18.42;2.30;;;7.40;99.90;;;;;;5051506;28;20170;-45
2022/12/30 01:19:22;;;;;;;11.38;2.72;;;7.40;99.90;;;;;;5051613;28;20193;-44
2022/12/30 01:21:48;;;;;;;11.85;1.98;;;7.40;99.90;;;;;;5051403;28;20159;-45
2022/12/30 01:24:13;;;;;;;11.55;1.88;;;7.40;99.90;;;;;;5051835;28;20175;-45
2022/12/30 01:26:39;;;;;;;9.93;2.50;;;7.40;99.90;;;;;;5051397;28;20220;-45
2022/12/30 01:29:05;;;;;;;5.97;2.28;;;7.50;99.90;;;;;;5051365;28;20183;-45
2022/12/30 01:31:31;;;;;;;9.75;1.92;;;7.50;99.90;;;;;;5051645;28;20167;-45
2022/12/30 01:33:56;;;;;;;8.23;2.30;;;7.50;99.90;;;;;;5051378;28;20627;-45
2022/12/30 01:36:22;;;;;;;9.55;2.30;;;7.40;99.90;;;;;;5051429;28;20257;-45
2022/12/30 01:38:47;;;;;;;10.88;2.28;;;7.40;99.90;;;;;;5051340;28;20198;-45
2022/12/30 01:41:13;;;;;;;11.88;2.63;;;7.40;99.90;;;;;;5051121;28;20167;-45
2022/12/30 01:43:56;;;;;;;9.93;1.85;;;7.40;99.90;;;;;;5050911;28;20213;-45
2022/12/30 01:46:30;;;;;;;11.35;2.17;;;7.40;99.90;;;;;;5051210;28;20171;-45
2022/12/30 01:48:57;;;;;;;10.85;2.58;;;7.40;99.90;;;;;;5051217;28;20224;-45
2022/12/30 01:51:30;;;;;;;8.45;2.38;;;7.30;99.90;;;;;;5051191;28;20309;-45
2022/12/30 01:54:00;;;;;;;9.32;2.22;;;7.30;99.90;;;;;;5051002;28;20700;-45
2022/12/30 01:56:34;;;;;;;12.48;2.50;;;7.30;99.90;;;;;;5051184;28;20179;-45
2022/12/30 01:59:04;;;;;;;6.88;1.95;;;7.30;99.90;;;;;;5051118;28;20155;-45
2022/12/30 02:01:31;;;;;;;9.65;2.30;;;7.20;99.90;;;;;;5050836;28;20190;-45
2022/12/30 02:04:09;;;;;;;10.90;2.47;;;7.20;99.90;;;;;;5050967;28;20217;-45
2022/12/30 02:06:44;;;;;;;8.15;2.22;;;7.20;99.90;;;;;;5051062;28;20177;-45
2022/12/30 02:09:09;;;;;;;14.88;2.92;;;7.10;99.90;;;;;;5051047;28;20170;-45
2022/12/30 02:11:35;;;;;;;8.88;2.53;;;7.10;99.90;;;;;;5050952;28;20529;-45
2022/12/30 02:14:01;;;;;;;8.55;2.90;;;7.10;99.90;;;;;;5051100;28;20175;-45
2022/12/30 02:16:43;;;;;;;9.25;2.45;;;7.10;99.90;;;;;;5054700;28;20166;-45
2022/12/30 02:19:56;;;;;;;10.18;2.92;;;7.00;99.90;;;;;;5054851;28;20525;-45
2022/12/30 02:23:01;;;;;;;10.60;2.85;;;7.10;99.90;;;;;;5032426;28;20250;-45
2022/12/30 02:25:56;;;;;;;8.88;2.72;;;7.10;99.90;;;;;;5032234;28;20167;-45
2022/12/30 02:28:47;;;;;;;13.45;3.10;;;7.10;99.90;;;;;;5052871;28;20183;-45
2022/12/30 02:31:15;;;;;;;12.70;3.53;;;7.10;99.90;;;;;;5054648;28;20557;-45
2022/12/30 02:34:06;;;;;;;13.65;2.97;;;7.00;99.90;;;;;;5054276;28;20194;-45
2022/12/30 02:36:41;;;;;;;13.65;3.20;;;7.00;99.90;;;;;;5054215;28;20158;-45
2022/12/30 02:39:19;;;;;;;14.57;3.28;;;6.90;99.90;;;;;;5054192;28;20641;-45
2022/12/30 02:44:50;;;;;;;13.02;3.10;;;6.90;99.90;;;;;;5054073;28;20185;-44
2022/12/30 02:47:25;;;;;;;16.98;3.83;;;6.80;99.90;;;;;;5054319;28;20166;-45
2022/12/30 02:52:45;;;;;;;17.63;3.78;;;6.80;99.90;;;;;;5054400;28;20248;-44
2022/12/30 02:55:11;;;;;;;16.55;3.65;;;6.90;99.90;;;;;;5053778;28;20569;-45
2022/12/30 02:57:37;;;;;;;10.50;3.00;;;6.90;99.90;;;;;;5053618;28;20170;-45
2022/12/30 03:06:25;;;;;;;13.95;3.22;;;6.90;99.90;;;;;;5054233;28;20650;-45
2022/12/30 03:09:16;;;;;;;10.73;2.20;;;6.80;99.90;;;;;;5053073;28;20227;-45
2022/12/30 03:12:14;;;;;;;13.10;2.08;;;6.80;99.90;;;;;;5053883;28;20171;-45
2022/12/30 03:14:51;;;;;;;10.90;2.47;;;6.80;99.90;;;;;;5053499;28;20190;-45
2022/12/30 03:17:23;;;;;;;16.48;3.50;;;6.80;99.90;;;;;;5053445;28;20166;-45
2022/12/30 03:19:54;;;;;;;19.50;4.57;;;6.70;99.90;;;;;;5053485;28;20189;-45
2022/12/30 03:27:56;;;;;;;9.38;2.63;;;6.60;99.90;;;;;;5053507;28;20185;-45
2022/12/30 03:30:22;;;;;;;17.08;2.83;;;6.40;99.90;;;;;;5053192;28;20170;-45
2022/12/30 03:32:48;;;;;;;10.20;2.50;;;6.40;99.90;;;;;;5053124;28;20257;-45
2022/12/30 03:35:14;;;;;;;8.55;2.42;;;6.40;99.90;;;;;;5053450;28;20173;-45
2022/12/30 03:37:48;;;;;;;9.05;2.80;;;6.40;99.90;;;;;;5053027;28;20193;-45
2022/12/30 03:40:22;;;;;;;7.60;2.50;;;6.30;99.90;;;;;;5053314;28;20257;-45
2022/12/30 03:42:51;;;;;;;12.77;2.60;;;6.20;99.90;;;;;;5052265;28;20353;-45
2022/12/30 03:45:18;;;;;;;10.25;2.67;;;6.20;99.90;;;;;;5052910;28;20220;-45
2022/12/30 03:47:44;;;;;;;9.35;2.90;;;6.20;99.90;;;;;;5053099;28;20178;-45
2022/12/30 03:50:10;;;;;;;9.27;2.25;;;6.10;99.90;;;;;;5051519;28;20170;-45
2022/12/30 03:52:35;;;;;;;16.30;2.88;;;6.10;99.90;;;;;;5052719;28;20201;-45
2022/12/30 03:55:01;;;;;;;16.63;3.80;;;6.20;99.90;;;;;;5052735;28;20220;-45
2022/12/30 03:57:27;;;;;;;16.60;3.45;;;6.30;99.90;;;;;;5052694;28;20246;-45
2022/12/30 03:59:52;;;;;;;7.05;2.70;;;6.30;99.90;;;;;;5052633;28;20224;-45
2022/12/30 04:02:18;;;;;;;11.52;2.80;;;6.30;99.90;;;;;;5052414;28;20236;-45
2022/12/30 04:04:43;;;;;;;10.38;3.05;;;6.20;99.90;;;;;;5052944;28;20253;-45
2022/12/30 04:07:09;;;;;;;14.82;3.67;;;6.20;99.90;;;;;;5052511;28;20193;-45
2022/12/30 04:09:34;;;;;;;13.05;2.63;;;6.20;99.90;;;;;;5052462;28;20232;-45
2022/12/30 04:12:00;;;;;;;10.57;3.42;;;6.30;99.90;;;;;;5052481;28;20193;-45
2022/12/30 04:14:26;;;;;;;18.05;3.40;;;6.20;99.90;;;;;;5052356;28;20690;-45
2022/12/30 04:16:51;;;;;;;10.43;2.58;;;6.20;99.90;;;;;;5052369;28;20530;-45
2022/12/30 04:19:17;;;;;;;10.25;3.30;;;6.10;99.90;;;;;;5052514;28;20163;-45
2022/12/30 04:21:43;;;;;;;15.10;3.10;;;6.10;99.90;;;;;;5052929;28;20231;-45
2022/12/30 04:24:08;;;;;;;10.07;2.80;;;6.00;99.90;;;;;;5051800;28;20216;-45
2022/12/30 04:26:34;;;;;;;11.98;2.75;;;6.00;99.90;;;;;;5052071;28;20220;-45
2022/12/30 04:29:00;;;;;;;12.65;3.25;;;5.90;99.90;;;;;;5052161;28;20231;-45
2022/12/30 04:31:25;;;;;;;9.23;2.13;;;5.90;99.90;;;;;;5052151;28;20630;-45
2022/12/30 04:33:52;;;;;;;12.50;2.58;;;5.90;99.90;;;;;;5052232;28;20190;-45
2022/12/30 04:36:19;;;;;;;6.35;2.60;;;5.90;99.90;;;;;;5052013;28;20626;-45
2022/12/30 04:38:45;;;;;;;6.95;2.17;;;5.90;99.90;;;;;;5051829;28;20690;-45
2022/12/30 04:41:11;;;;;;;6.88;2.83;;;5.90;99.90;;;;;;5051911;28;20178;-45
2022/12/30 04:43:36;;;;;;;15.68;3.25;;;6.00;99.90;;;;;;5051809;28;20305;-45
2022/12/30 04:46:02;;;;;;;10.02;2.83;;;6.00;99.90;;;;;;5051867;28;20650;-45
2022/12/30 04:48:28;;;;;;;13.05;4.35;;;6.00;99.90;;;;;;5051919;28;20638;-44
2022/12/30 04:50:54;;;;;;;14.63;2.70;;;5.90;99.90;;;;;;5051867;28;20190;-45
2022/12/30 04:53:19;;;;;;;9.40;2.45;;;6.00;99.90;;;;;;5051772;28;20209;-45
2022/12/30 04:55:45;;;;;;;9.95;2.42;;;5.90;99.90;;;;;;5052069;28;20554;-45
2022/12/30 04:58:11;;;;;;;9.20;2.17;;;5.80;99.90;;;;;;5052367;28;20174;-45
2022/12/30 05:00:36;;;;;;;13.30;3.22;;;5.80;99.90;;;;;;5051744;28;20178;-45
2022/12/30 05:03:02;;;;;;;11.40;2.40;;;5.80;99.90;;;;;;5051348;28;20292;-45
2022/12/30 05:05:27;;;;;;;15.05;2.83;;;5.80;99.90;;;;;;5051597;28;20174;-45
2022/12/30 05:07:53;;;;;;;13.32;2.90;;;5.80;99.90;;;;;;5051682;28;20645;-45
2022/12/30 05:10:19;;;;;;;8.02;2.58;;;5.80;99.90;;;;;;5051558;28;20179;-45
2022/12/30 05:12:44;;;;;;;19.73;2.78;;;5.80;99.90;;;;;;5052244;28;20175;-45
2022/12/30 05:15:10;;;;;;;6.75;2.72;;;5.80;99.90;;;;;;5051472;28;20241;-45
2022/12/30 05:17:36;;;;;;;11.32;2.42;;;5.80;99.90;;;;;;5051565;28;20614;-45
2022/12/30 05:20:01;;;;;;;5.88;2.28;;;5.70;99.90;;;;;;5051544;28;20634;-45
2022/12/30 05:22:27;;;;;;;10.07;2.17;;;5.70;99.90;;;;;;5051651;28;20198;-45
2022/12/30 05:27:36;;;;;;;9.43;2.08;;;5.60;99.90;;;;;;5051676;28;20258;-45
2022/12/30 05:30:02;;;;;;;6.10;2.13;;;5.60;99.90;;;;;;5051373;28;20254;-45
2022/12/30 05:32:28;;;;;;;5.57;2.17;;;5.70;99.90;;;;;;5051487;28;20171;-44
2022/12/30 05:34:53;;;;;;;11.40;2.63;;;5.60;99.90;;;;;;5051344;28;20167;-45
2022/12/30 05:37:19;;;;;;;10.90;2.53;;;5.60;99.90;;;;;;5051295;28;20251;-45
2022/12/30 05:39:44;;;;;;;9.55;3.35;;;5.60;99.90;;;;;;5051683;28;20179;-45
2022/12/30 05:42:10;;;;;;;10.80;2.75;;;5.60;99.90;;;;;;5051226;28;20217;-45
2022/12/30 05:44:35;;;;;;;5.20;2.42;;;5.50;99.90;;;;;;5051319;28;20205;-45
2022/12/30 05:47:01;;;;;;;10.57;2.40;;;5.60;99.90;;;;;;5050036;28;20174;-45
2022/12/30 05:49:26;;;;;;;16.42;3.00;;;5.50;99.90;;;;;;5052354;28;20217;-45
2022/12/30 05:51:52;;;;;;;10.25;2.65;;;5.50;99.90;;;;;;5055099;28;20163;-45
2022/12/30 05:54:17;;;;;;;9.52;2.88;;;5.50;99.90;;;;;;5054996;28;20174;-45
2022/12/30 05:56:43;;;;;;;11.15;2.88;;;5.60;99.90;;;;;;5055415;28;20195;-45
2022/12/30 05:59:09;;;;;;;8.80;2.25;;;5.60;99.90;;;;;;5053732;28;20185;-45
2022/12/30 06:01:36;;;;;;;8.35;2.60;;;5.60;99.90;;;;;;5054758;28;20287;-45
2022/12/30 06:04:01;;;;;;;9.23;2.65;;;5.60;99.90;;;;;;5054697;28;20202;-45
2022/12/30 06:06:27;;;;;;;11.43;3.08;;;5.60;99.90;;;;;;5054725;28;20159;-45
2022/12/30 06:08:52;;;;;;;9.65;2.83;;;5.60;99.90;;;;;;5054740;28;20170;-44
2022/12/30 06:11:18;;;;;;;11.75;3.42;;;5.60;99.90;;;;;;5054693;28;20166;-45
2022/12/30 06:13:44;;;;;;;10.35;3.50;;;5.50;99.90;;;;;;5055027;28;20162;-45
2022/12/30 06:16:09;;;;;;;11.98;2.67;;;5.50;99.90;;;;;;5054668;28;20513;-45
2022/12/30 06:18:35;;;;;;;13.25;4.13;;;5.50;99.90;;;;;;5053157;28;20580;-45
2022/12/30 06:21:01;;;;;;;7.10;2.22;;;5.60;99.90;;;;;;5054510;28;20208;-45
2022/12/30 06:23:26;;;;;;;7.40;2.28;;;5.60;99.90;;;;;;5054615;28;20210;-45
2022/12/30 06:25:53;;;;;;;7.70;2.28;;;5.70;99.90;;;;;;5054361;28;20630;-45
2022/12/30 06:28:19;;;;;;;9.38;2.50;;;5.70;99.90;;;;;;5053239;28;20174;-45
2022/12/30 06:30:45;;;;;;;9.02;2.45;;;5.80;99.90;;;;;;5054691;28;20175;-45
2022/12/30 06:33:10;;;;;;;11.30;1.92;;;5.80;99.90;;;;;;5054709;28;20167;-45
2022/12/30 06:35:36;;;;;;;8.85;2.05;;;5.80;99.90;;;;;;5054228;28;20166;-45
2022/12/30 06:38:01;;;;;;;7.85;1.88;;;5.80;99.90;;;;;;5054206;28;20223;-45
2022/12/30 06:40:27;;;;;;;7.97;2.10;;;5.90;99.90;;;;;;5054056;28;20198;-45
2022/12/30 06:42:52;;;;;;;13.52;2.08;;;5.90;99.90;;;;;;5053970;28;20215;-45
2022/12/30 06:45:18;;;;;;;7.38;2.20;;;5.90;99.90;;;;;;5054049;28;20170;-44
2022/12/30 06:47:43;;;;;;;8.85;1.90;;;5.90;99.90;;;;;;5054337;28;20174;-45
2022/12/30 06:50:09;;;;;;;10.20;1.92;;;6.00;99.90;;;;;;5053762;28;20711;-45
2022/12/30 06:52:35;;;;;;;11.55;1.77;;;5.90;99.90;;;;;;5053837;28;20171;-45
2022/12/30 06:55:00;;;;;;;10.65;2.78;;;5.90;99.90;;;;;;5053939;28;20625;-45
2022/12/30 06:57:26;;;;;;;3.83;1.88;;;5.90;99.90;;;;;;5053836;28;20167;-45
2022/12/30 06:59:51;;;;;;;7.55;2.38;;;6.00;99.90;;;;;;5053778;28;20181;-45
2022/12/30 07:02:17;;;;;;;7.75;2.00;;;6.00;99.90;;;;;;5053355;28;20268;-45
2022/12/30 07:04:43;;;;;;;10.50;2.22;;;6.00;99.90;;;;;;5054032;28;20170;-45
2022/12/30 07:07:08;;;;;;;4.90;1.88;;;5.90;99.90;;;;;;5053578;28;20171;-45
2022/12/30 07:09:34;;;;;;;8.82;1.60;;;6.00;99.90;;;;;;5053830;28;20209;-45
2022/12/30 07:11:59;;;;;;;7.35;2.20;;;6.10;99.90;;;;;;5053568;28;20194;-45
2022/12/30 07:14:25;;;;;;;7.28;1.73;;;6.10;99.90;;;;;;5053534;28;20258;-45
2022/12/30 07:16:50;;;;;;;4.88;1.67;;;6.20;99.90;;;;;;5053522;28;20191;-45
2022/12/30 07:19:16;;;;;;;5.82;2.10;;;6.20;99.90;;;;;;5053468;28;20194;-44
2022/12/30 07:21:42;;;;;;;8.48;1.95;;;6.20;99.90;;;;;;5053769;28;20525;-45
2022/12/30 07:24:08;;;;;;;8.10;2.03;;;6.30;99.90;;;;;;5053284;28;20202;-45
2022/12/30 07:26:33;;;;;;;9.48;1.65;;;6.30;99.90;;;;;;5053541;28;20535;-45
2022/12/30 07:28:59;;;;;;;2.60;1.30;;;6.30;99.90;;;;;;5053166;28;20665;-45
2022/12/30 07:31:24;;;;;;;8.18;1.80;;;6.40;99.90;;;;;;5053246;28;20181;-45
2022/12/30 07:33:50;;;;;;;3.72;1.65;;;6.50;99.90;;;;;;5053157;28;20166;-45
2022/12/30 07:36:16;;;;;;;5.47;1.55;;;6.50;99.90;;;;;;5053209;28;20635;-45
2022/12/30 07:38:41;;;;;;;5.63;2.03;;;6.50;99.90;;;;;;5053507;28;20163;-45
2022/12/30 07:41:07;;;;;;;6.40;1.60;;;6.50;99.90;;;;;;5053055;28;20265;-45
2022/12/30 07:43:32;;;;;;;3.47;1.33;;;6.60;99.90;;;;;;5052827;28;20199;-45
2022/12/30 07:45:58;;;;;;;5.63;1.75;;;6.60;99.90;;;;;;5052914;28;20649;-45
2022/12/30 07:48:24;;;;;;;5.82;1.90;;;6.60;99.90;;;;;;5052922;28;20166;-45
2022/12/30 07:50:49;;;;;;;10.38;1.70;;;6.50;99.90;;;;;;5052803;28;20580;-44
2022/12/30 07:53:15;;;;;;;7.15;1.50;;;6.50;99.90;;;;;;5052781;28;20589;-45
2022/12/30 07:55:40;;;;;;;7.30;1.90;;;6.50;99.90;;;;;;5053081;28;20206;-44
2022/12/30 07:58:06;;;;;;;7.32;2.13;;;6.60;99.90;;;;;;5052739;28;20174;-45
2022/12/30 08:00:32;;;;;;;4.00;1.60;;;6.60;99.90;;;;;;5052661;28;20162;-45
2022/12/30 08:02:58;;;;;;;2.00;1.40;;;6.60;99.90;;;;;;5052331;28;20724;-45
2022/12/30 08:05:24;;;;;;;10.00;1.95;;;6.60;99.90;;;;;;5052831;28;20166;-44
2022/12/30 08:07:52;;;;;;;23.55;2.88;;;6.70;99.90;;;;;;5052541;28;20218;-45
2022/12/30 08:10:19;;;;;;;11.10;1.80;;;6.60;99.90;;;;;;5052416;28;20175;-44
2022/12/30 08:12:45;;;;;;;6.05;1.83;;;6.70;99.90;;;;;;5051936;28;20166;-44
2022/12/30 08:15:11;;;;;;;4.32;1.80;;;6.70;99.90;;;;;;5052741;28;20167;-44
2022/12/30 08:17:37;;;;;;;5.28;1.88;;;6.70;99.90;;;;;;5052303;28;20170;-44
2022/12/30 08:20:03;;;;;;;3.60;1.30;;;6.80;99.90;;;;;;5051995;28;20166;-44
2022/12/30 08:22:29;;;;;;;5.63;2.15;;;6.80;99.90;;;;;;5052157;28;20213;-44
2022/12/30 08:24:55;;;;;;;6.18;2.17;;;6.80;99.90;;;;;;5052173;28;20171;-44
2022/12/30 08:27:21;;;;;;;5.57;1.80;;;6.90;99.90;;;;;;5052192;28;20619;-44
2022/12/30 08:29:46;;;;;;;6.00;1.80;;;6.90;99.90;;;;;;5052167;28;20194;-44
2022/12/30 08:32:12;;;;;;;5.97;2.22;;;7.00;99.90;;;;;;5052444;28;20194;-44
2022/12/30 08:34:38;;;;;;;5.22;1.63;;;7.00;99.90;;;;;;5051993;28;20163;-44
2022/12/30 08:37:04;;;;;;;8.07;2.08;;;7.00;99.90;;;;;;5051781;28;20170;-44
2022/12/30 08:39:29;;;;;;;9.23;1.67;;;7.10;99.90;;;;;;5051971;28;20213;-45
2022/12/30 08:41:55;;;;;;;4.95;1.85;;;7.20;99.90;;;;;;5051853;28;20174;-45
2022/12/30 08:44:21;;;;;;;5.22;1.65;;;7.20;99.90;;;;;;5051952;28;20185;-45
2022/12/30 08:46:46;;;;;;;6.00;1.88;;;7.30;99.90;;;;;;5051918;28;20198;-44
2022/12/30 08:49:13;;;;;;;4.32;1.60;;;7.30;99.90;;;;;;5052449;28;20619;-45
2022/12/30 08:51:38;;;;;;;8.43;1.95;;;7.30;99.90;;;;;;5052074;28;20162;-44
2022/12/30 08:54:04;;;;;;;5.55;2.00;;;7.40;99.90;;;;;;5051752;28;20390;-44
2022/12/30 08:56:32;;;;;;;4.68;1.90;;;7.50;99.90;;;;;;5051796;28;20171;-44
2022/12/30 08:58:58;;;;;;;5.88;1.42;;;7.50;99.90;;;;;;5051562;28;20682;-44
2022/12/30 09:01:30;;;;;;;8.50;1.95;;;7.60;99.90;;;;;;5051544;28;20175;-44
2022/12/30 09:03:56;;;;;;;2.15;1.38;;;7.60;99.90;;;;;;5051630;28;20289;-44
2022/12/30 09:06:24;;;;;;;4.40;1.60;;;7.70;99.90;;;;;;5051648;28;20178;-44
2022/12/30 09:08:50;;;;;;;5.10;2.15;;;7.80;99.90;;;;;;5051687;28;20174;-44
2022/12/30 09:11:23;;;;;;;2.75;1.52;;;7.90;99.90;;;;;;5050293;28;20589;-44
2022/12/30 09:13:49;;;;;;;12.63;2.13;;;8.00;99.90;;;;;;5051561;28;20201;-44
2022/12/30 09:16:17;;;;;;;5.93;2.00;;;8.00;99.90;;;;;;5051484;28;20170;-45
2022/12/30 09:18:43;;;;;;;5.72;2.03;;;8.10;99.90;;;;;;5052119;28;20166;-44
2022/12/30 09:21:09;;;;;;;5.68;1.85;;;8.10;99.90;;;;;;5051473;28;20182;-45
2022/12/30 09:23:36;;;;;;;4.80;1.70;;;8.20;99.90;;;;;;5052762;28;20210;-45
2022/12/30 09:26:03;;;;;;;3.13;1.27;;;8.20;99.90;;;;;;5055543;28;20172;-44
2022/12/30 09:28:28;;;;;;;6.40;1.20;;;8.30;99.90;;;;;;5055522;28;20171;-44
2022/12/30 09:30:54;;;;;;;4.45;1.60;;;8.30;99.90;;;;;;5055718;28;20243;-44
2022/12/30 09:33:19;;;;;;;4.72;2.03;;;8.40;99.90;;;;;;5055434;28;20165;-44
2022/12/30 09:35:45;;;;;;;3.60;1.80;;;8.40;99.90;;;;;;5055401;28;20174;-44
2022/12/30 09:38:10;;;;;;;8.52;1.85;;;8.40;99.90;;;;;;5055721;28;20258;-44
2022/12/30 09:41:05;;;;;;;6.22;1.70;;;8.40;99.90;;;;;;5055255;28;20177;-44
2022/12/30 09:44:05;;;;;;;5.90;1.40;;;8.50;99.90;;;;;;5055145;28;20202;-44
2022/12/30 09:46:48;;;;;;;3.55;1.60;;;8.50;99.90;;;;;;5055459;28;20178;-44
2022/12/30 09:49:21;;;;;;;9.60;1.90;;;8.50;99.90;;;;;;5055350;28;20253;-44
2022/12/30 09:51:56;;;;;;;8.18;2.03;;;8.60;99.90;;;;;;5053985;28;20529;-44
2022/12/30 09:54:25;;;;;;;10.30;2.45;;;8.60;99.90;;;;;;5054961;28;20170;-44
2022/12/30 09:56:57;;;;;;;5.35;1.70;;;8.60;99.90;;;;;;5053958;28;20261;-44
2022/12/30 09:59:32;;;;;;;8.55;1.80;;;8.60;99.90;;;;;;5054927;28;20169;-44
2022/12/30 10:02:27;;;;;;;6.70;2.03;;;8.60;99.90;;;;;;5054468;28;20310;-44
2022/12/30 10:04:54;;;;;;;4.20;1.40;;;8.60;99.90;;;;;;5053912;28;20186;-44
2022/12/30 10:07:35;;;;;;;6.50;1.70;;;8.70;99.90;;;;;;5054681;28;20546;-44
2022/12/30 10:10:03;;;;;;;4.63;1.67;;;8.70;99.90;;;;;;5054594;28;20174;-44
2022/12/30 10:13:01;;;;;;;3.75;1.55;;;8.70;99.90;;;;;;5054538;28;20647;-44
2022/12/30 10:15:43;;;;;;;4.97;1.60;;;8.80;99.90;;;;;;5052450;28;20237;-44
2022/12/30 10:18:38;;;;;;;9.73;1.88;;;8.80;99.90;;;;;;5054412;28;20638;-46
2022/12/30 10:21:32;;;;;;;4.50;2.05;;;8.80;99.90;;;;;;5054571;28;20177;-45
2022/12/30 10:24:03;;;;;;;4.50;1.60;;;8.80;99.90;;;;;;5054462;28;20674;-46
2022/12/30 10:26:41;;;;;;;3.20;1.40;;;8.90;99.90;;;;;;5053199;28;20213;-45
2022/12/30 10:29:33;;;;;;;6.70;1.70;;;8.90;99.90;;;;;;5054488;28;20166;-45
2022/12/30 10:32:19;;;;;;;7.15;1.70;;;8.90;99.90;;;;;;5054010;28;20216;-45
2022/12/30 10:34:47;;;;;;;8.20;1.80;;;9.00;99.90;;;;;;5053746;28;20182;-44
2022/12/30 10:37:27;;;;;;;3.70;1.85;;;8.90;99.90;;;;;;5054373;28;20170;-45
2022/12/30 10:39:53;;;;;;;6.38;2.03;;;8.90;99.90;;;;;;5054354;28;20642;-45
2022/12/30 10:42:39;;;;;;;4.07;1.38;;;8.90;99.90;;;;;;5054037;28;20206;-45
2022/12/30 10:45:19;;;;;;;4.10;1.42;;;8.90;99.90;;;;;;5053726;28;20752;-45
2022/12/30 10:47:57;;;;;;;5.22;1.63;;;8.90;99.90;;;;;;5053888;28;20171;-45
2022/12/30 10:50:29;;;;;;;3.58;1.52;;;8.90;99.90;;;;;;5054025;28;20163;-45
2022/12/30 10:52:54;;;;;;;4.72;1.90;;;8.90;99.90;;;;;;5052624;28;20213;-45
2022/12/30 10:55:31;;;;;;;8.65;2.55;;;8.90;99.90;;;;;;5053769;28;20191;-45
2022/12/30 10:58:06;;;;;;;5.32;1.48;;;9.00;99.90;;;;;;5042627;28;20218;-45
2022/12/30 11:00:39;;;;;;;3.08;1.52;;;9.00;99.90;;;;;;5035407;28;20538;-44
2022/12/30 11:03:16;;;;;;;6.35;2.10;;;9.00;99.90;;;;;;5033632;28;20231;-45
2022/12/30 11:05:42;;;;;;;5.30;2.17;;;9.00;99.90;;;;;;5034081;28;20167;-44
2022/12/30 11:08:22;;;;;;;5.65;1.85;;;9.00;99.90;;;;;;5033761;28;20172;-44
2022/12/30 11:10:58;;;;;;;4.80;1.80;;;9.00;99.90;;;;;;5033590;28;20168;-44
2022/12/30 11:16:09;;;;;;;6.90;1.95;;;8.90;99.90;;;;;;5033839;28;20645;-44
2022/12/30 11:18:35;;;;;;;6.00;2.08;;;8.90;99.90;;;;;;5033662;28;20163;-44
2022/12/30 11:21:01;;;;;;;6.72;2.10;;;8.90;99.90;;;;;;5033693;28;20198;-45
2022/12/30 11:23:30;;;;;;;9.80;2.80;;;8.90;99.90;;;;;;5033499;28;20597;-44
2022/12/30 11:25:56;;;;;;;7.57;2.58;;;8.90;99.90;;;;;;5033583;28;20221;-45
2022/12/30 11:28:45;;;;;;;6.35;2.80;;;8.90;99.90;;;;;;5033365;28;20190;-45
2022/12/30 11:31:13;;;;;;;4.07;1.40;;;9.00;99.90;;;;;;5033739;28;20163;-45
2022/12/30 11:33:51;;;;;;;4.88;2.03;;;9.00;99.90;;;;;;5032986;28;20183;-45
2022/12/30 11:36:28;;;;;;;10.93;3.72;;;9.00;99.90;;;;;;5032377;28;20253;-45
2022/12/30 11:38:55;;;;;;;5.40;1.95;;;9.00;99.90;;;;;;5032889;28;20170;-45
2022/12/30 11:41:28;;;;;;;6.50;3.85;;;8.90;99.90;;;;;;5032953;28;20632;-45
2022/12/30 11:44:00;;;;;;;6.65;1.83;;;8.90;99.90;;;;;;5032966;28;20243;-46
2022/12/30 11:46:30;;;;;;;7.00;2.13;;;9.00;99.90;;;;;;5032527;28;20178;-45
2022/12/30 11:49:02;;;;;;;6.15;2.33;;;9.00;99.90;;;;;;5032639;28;20178;-45
2022/12/30 11:51:42;;;;;;;5.15;1.90;;;9.00;99.90;;;;;;5032359;28;20628;-45
2022/12/30 11:54:10;;;;;;;10.93;2.20;;;8.90;99.90;;;;;;5032703;28;20261;-46
2022/12/30 11:56:54;;;;;;;6.80;2.00;;;9.00;99.90;;;;;;5032162;28;20217;-45
2022/12/30 11:59:24;;;;;;;6.32;2.35;;;9.00;99.90;;;;;;5032789;28;20203;-44
2022/12/30 12:01:54;;;;;;;4.00;1.55;;;8.90;99.90;;;;;;5031097;28;20302;-45
2022/12/30 12:04:41;;;;;;;6.47;2.10;;;8.90;99.90;;;;;;5032366;28;20211;-45
2022/12/30 12:07:35;;;;;;;5.38;2.83;;;8.90;99.90;;;;;;5032254;28;20225;-45
2022/12/30 12:10:23;;;;;;;6.38;1.73;;;8.90;99.90;;;;;;5032372;28;20246;-45
2022/12/30 12:13:02;;;;;;;3.50;1.73;;;8.90;99.90;;;;;;5032214;28;20209;-45
2022/12/30 12:15:36;;;;;;;4.15;1.70;;;9.00;99.90;;;;;;5032062;28;20171;-45
2022/12/30 12:18:18;;;;;;;5.57;2.25;;;9.00;99.90;;;;;;5032189;28;20168;-45
2022/12/30 12:21:17;;;;;;;5.22;1.92;;;9.00;99.90;;;;;;5031927;28;20714;-45
2022/12/30 12:24:01;;;;;;;3.80;2.53;;;9.00;99.90;;;;;;5032297;28;20755;-45
2022/12/30 12:26:42;;;;;;;4.07;1.35;;;9.00;99.90;;;;;;5032018;28;20171;-45
2022/12/30 12:29:13;;;;;;;4.85;2.00;;;9.10;99.90;;;;;;5032019;28;20155;-46
2022/12/30 12:32:15;;;;;;;5.80;2.05;;;9.00;99.90;;;;;;5032405;28;20532;-45
2022/12/30 12:34:56;;;;;;;8.13;3.55;;;9.10;99.90;;;;;;5032364;28;20175;-45
2022/12/30 12:37:33;;;;;;;4.97;1.77;;;9.10;99.90;;;;;;5031668;28;20246;-46
2022/12/30 12:40:02;;;;;;;3.58;2.15;;;9.10;99.90;;;;;;5031876;28;20250;-45
2022/12/30 12:42:44;;;;;;;12.50;7.78;;;9.10;99.90;;;;;;5031681;28;20249;-45
2022/12/30 12:45:33;;;;;;;5.35;1.50;;;9.10;99.90;;;;;;5032246;28;20163;-45
2022/12/30 12:48:24;;;;;;;6.75;2.20;;;9.10;99.90;;;;;;5031801;28;20173;-45
2022/12/30 12:51:07;;;;;;;2.92;1.90;;;9.10;99.90;;;;;;5031690;28;20241;-45
2022/12/30 12:54:07;;;;;;;7.15;1.90;;;9.10;99.90;;;;;;5031731;28;20167;-44
2022/12/30 12:57:03;;;;;;;4.43;2.00;;;9.20;99.90;;;;;;5031938;28;20523;-44
2022/12/30 12:59:34;;;;;;;6.25;2.17;;;9.10;99.90;;;;;;5031079;28;20631;-45
2022/12/30 13:02:19;;;;;;;7.78;2.20;;;9.20;99.90;;;;;;5031356;28;20226;-45
2022/12/30 13:05:15;;;;;;;5.10;1.70;;;9.20;99.90;;;;;;5031271;28;20553;-45
2022/12/30 13:08:05;;;;;;;5.80;1.35;;;9.20;99.90;;;;;;5031866;28;20171;-45
2022/12/30 13:11:02;;;;;;;11.38;5.85;;;9.20;99.90;;;;;;5031374;28;20234;-45
2022/12/30 13:14:12;;;;;;;7.25;4.68;;;9.20;99.90;;;;;;5031403;28;20164;-46
2022/12/30 13:16:41;;;;;;;5.78;1.73;;;9.20;99.90;;;;;;5019564;28;20634;-45
2022/12/30 13:19:14;;;;;;;5.32;1.70;;;9.20;99.90;;;;;;5031546;28;20178;-45
2022/12/30 13:21:42;;;;;;;5.63;1.92;;;9.20;99.90;;;;;;5031785;28;20173;-44
2022/12/30 13:24:21;;;;;;;4.50;1.83;;;9.20;99.90;;;;;;5031179;28;20676;-44
2022/12/30 13:26:47;;;;;;;5.35;2.15;;;9.20;99.90;;;;;;5031290;28;20195;-45
2022/12/30 13:29:14;;;;;;;3.22;1.52;;;9.20;99.90;;;;;;5031140;28;20159;-44
2022/12/30 13:32:16;;;;;;;5.32;1.70;;;9.10;99.90;;;;;;5031350;28;20631;-45
2022/12/30 13:35:11;;;;;;;7.30;1.85;;;9.10;99.90;;;;;;5031291;28;20167;-45
2022/12/30 13:37:46;;;;;;;3.17;1.60;;;9.10;99.90;;;;;;5031199;28;20254;-45
2022/12/30 13:40:18;;;;;;;4.55;2.00;;;9.00;99.90;;;;;;5031551;28;20175;-44
2022/12/30 13:43:04;;;;;;;6.32;1.60;;;9.00;99.90;;;;;;5030516;28;20342;-45
2022/12/30 13:45:33;;;;;;;4.43;1.58;;;9.00;99.90;;;;;;5031159;28;20200;-45
2022/12/30 13:48:25;;;;;;;5.32;1.80;;;9.00;99.90;;;;;;5030661;28;20537;-45
2022/12/30 13:51:04;;;;;;;7.72;2.00;;;9.00;99.90;;;;;;5029786;28;20183;-45
2022/12/30 13:53:45;;;;;;;9.85;2.08;;;9.00;99.90;;;;;;5031005;28;20179;-45
2022/12/30 13:56:17;;;;;;;7.28;1.98;;;8.90;99.90;;;;;;5031340;28;20175;-45
2022/12/30 13:58:50;;;;;;;4.05;1.40;;;8.90;99.90;;;;;;5031034;28;20246;-45
2022/12/30 14:01:18;;;;;;;4.38;1.58;;;8.90;99.90;;;;;;5031088;28;20698;-45
2022/12/30 14:03:49;;;;;;;4.95;1.55;;;8.90;99.90;;;;;;5030803;28;20303;-45
2022/12/30 14:06:46;;;;;;;2.88;1.58;;;8.90;99.90;;;;;;5030919;28;20167;-46
2022/12/30 14:09:20;;;;;;;3.85;1.95;;;8.80;99.90;;;;;;5030696;28;20185;-45